Wind From: 13-12-2017 10:08 Until: 14-12-2017 06:00 warning for: Wind Level: Yellow info button

Although rather usual in this region, locally or potentially dangerous phenomena are expected. (such as local winds, summer thunderstorms, rising streams or high waves) Be aware and pay attention to the latest weather updates, especially if you carry out activities exposed to weather or close to a stream or shoreline. 


Meteo18 Weather Cam more information Meteo18 Weather Cam


Thunder radar more information blitzortung!


Rain radar more information rain snow radar


Visit our other weather sites:

Template documentation
and downloads

And another site



Weather Underground History page Text

Daily Summary for April 15, 2017 Units:  Metric    English   Both
« Previous Day
Next Day »
Daily Weekly Monthly Yearly Custom
  High: Low: Average:
Temperature: 13.7 °C 7.2 °C 10.7 °C
Dew Point: 8.3 °C 4.7 °C 7 °C
Humidity: 90 % 64 % 78 %
Wind Speed: 16.1 km/h 0.0 km/h 3.8 km/h
Wind Gust: 25.7 km/h - -
Wind:- - West
Pressure: 1023.6 hPa 1018.8 hPa -
Precipitation: 0.0 mm    
Historical Graphs
 
 
Tabular Data for April 15, 2017
Time Temperature Dew Point Pressure Wind Wind Speed Wind Gust Humidity Rainfall Rate (Hourly)
00:02 10.8 °C 6.0 °C 1018.8 hPa Calm   4.8 km/h 72 % 0.0 mm
00:07 10.7 °C 5.9 °C 1018.8 hPa Calm   3.2 km/h 72 % 0.0 mm
00:12 10.7 °C 5.9 °C 1018.8 hPa NW 3.2 km/h 3.2 km/h 72 % 0.0 mm
00:17 10.7 °C 5.9 °C 1018.8 hPa NW 3.2 km/h 3.2 km/h 72 % 0.0 mm
00:22 10.7 °C 5.9 °C 1018.8 hPa NW 3.2 km/h 3.2 km/h 72 % 0.0 mm
00:32 10.7 °C 5.9 °C 1018.8 hPa NW 1.6 km/h 3.2 km/h 72 % 0.0 mm
00:37 10.6 °C 5.8 °C 1019.2 hPa NW 1.6 km/h 3.2 km/h 72 % 0.0 mm
00:42 10.7 °C 5.9 °C 1018.8 hPa NW 1.6 km/h 3.2 km/h 72 % 0.0 mm
00:52 10.6 °C 5.8 °C 1018.8 hPa NNW 1.6 km/h 3.2 km/h 72 % 0.0 mm
00:57 10.5 °C 5.7 °C 1018.8 hPa NNW 1.6 km/h 3.2 km/h 72 % 0.0 mm
01:02 10.3 °C 5.5 °C 1018.8 hPa Calm   3.2 km/h 72 % 0.0 mm
01:12 9.3 °C 5.5 °C 1018.8 hPa West 1.6 km/h 3.2 km/h 77 % 0.0 mm
01:17 9.2 °C 5.6 °C 1019.2 hPa Calm   3.2 km/h 78 % 0.0 mm
01:22 9.2 °C 5.6 °C 1019.2 hPa Calm   1.6 km/h 78 % 0.0 mm
01:32 8.9 °C 5.5 °C 1019.2 hPa Calm   1.6 km/h 79 % 0.0 mm
01:37 8.8 °C 5.5 °C 1019.2 hPa WNW 1.6 km/h 1.6 km/h 80 % 0.0 mm
01:42 8.8 °C 5.5 °C 1019.2 hPa Calm   1.6 km/h 80 % 0.0 mm
01:52 8.6 °C 5.5 °C 1019.2 hPa Calm   1.6 km/h 81 % 0.0 mm
01:57 8.9 °C 5.6 °C 1019.2 hPa Calm   1.6 km/h 80 % 0.0 mm
02:02 8.9 °C 5.6 °C 1019.2 hPa Calm   1.6 km/h 80 % 0.0 mm
02:07 8.8 °C 5.5 °C 1019.2 hPa Calm   1.6 km/h 80 % 0.0 mm
02:12 8.7 °C 5.4 °C 1019.2 hPa Calm   1.6 km/h 80 % 0.0 mm
02:17 8.5 °C 5.4 °C 1019.2 hPa Calm   1.6 km/h 81 % 0.0 mm
02:22 8.4 °C 5.5 °C 1019.2 hPa Calm   1.6 km/h 82 % 0.0 mm
02:27 8.2 °C 5.5 °C 1019.2 hPa WSW 1.6 km/h 1.6 km/h 83 % 0.0 mm
02:32 7.8 °C 4.7 °C 1019.2 hPa SW 3.2 km/h 3.2 km/h 81 % 0.0 mm
02:42 8.2 °C 5.5 °C 1019.2 hPa West 3.2 km/h 6.4 km/h 83 % 0.0 mm
02:47 8.4 °C 5.5 °C 1019.2 hPa WNW 3.2 km/h 6.4 km/h 82 % 0.0 mm
02:52 8.6 °C 5.5 °C 1019.2 hPa WNW 1.6 km/h 6.4 km/h 81 % 0.0 mm
02:57 8.6 °C 5.5 °C 1019.2 hPa Calm   6.4 km/h 81 % 0.0 mm
03:02 8.4 °C 5.3 °C 1019.2 hPa Calm   4.8 km/h 81 % 0.0 mm
03:12 8.7 °C 5.4 °C 1019.2 hPa Calm   3.2 km/h 80 % 0.0 mm
03:17 8.6 °C 5.3 °C 1019.2 hPa North 1.6 km/h 3.2 km/h 80 % 0.0 mm
03:22 8.6 °C 5.5 °C 1019.2 hPa Calm   3.2 km/h 81 % 0.0 mm
03:27 8.6 °C 5.3 °C 1019.2 hPa Calm   3.2 km/h 80 % 0.0 mm
03:37 8.4 °C 5.3 °C 1019.2 hPa Calm   1.6 km/h 81 % 0.0 mm
03:42 8.4 °C 5.5 °C 1019.2 hPa Calm   1.6 km/h 82 % 0.0 mm
03:52 8.7 °C 5.8 °C 1019.2 hPa Calm   1.6 km/h 82 % 0.0 mm
03:57 8.8 °C 5.9 °C 1019.2 hPa West 3.2 km/h 3.2 km/h 82 % 0.0 mm
04:02 8.9 °C 6.0 °C 1019.2 hPa WNW 3.2 km/h 4.8 km/h 82 % 0.0 mm
04:07 9.2 °C 6.3 °C 1019.2 hPa WNW 6.4 km/h 11.3 km/h 82 % 0.0 mm
04:12 9.3 °C 6.4 °C 1019.2 hPa WSW 4.8 km/h 11.3 km/h 82 % 0.0 mm
04:17 9.3 °C 6.4 °C 1019.2 hPa WNW 6.4 km/h 11.3 km/h 82 % 0.0 mm
04:22 9.4 °C 6.7 °C 1019.2 hPa WNW 9.7 km/h 11.3 km/h 83 % 0.0 mm
04:27 9.7 °C 6.8 °C 1019.2 hPa WNW 1.6 km/h 12.9 km/h 82 % 0.0 mm
04:32 9.7 °C 6.6 °C 1019.2 hPa West 8.0 km/h 14.5 km/h 81 % 0.0 mm
04:37 9.6 °C 6.5 °C 1018.8 hPa Calm   14.5 km/h 81 % 0.0 mm
04:42 9.5 °C 6.4 °C 1018.8 hPa Calm   14.5 km/h 81 % 0.0 mm
04:47 9.3 °C 6.4 °C 1018.8 hPa Calm   9.7 km/h 82 % 0.0 mm
04:52 9.2 °C 6.3 °C 1018.8 hPa NW 1.6 km/h 9.7 km/h 82 % 0.0 mm
04:57 9.0 °C 6.3 °C 1018.8 hPa NNW 1.6 km/h 1.6 km/h 83 % 0.0 mm
05:02 9.0 °C 6.3 °C 1018.8 hPa NW 3.2 km/h 3.2 km/h 83 % 0.0 mm
05:12 8.9 °C 6.3 °C 1018.8 hPa Calm   4.8 km/h 84 % 0.0 mm
05:17 8.8 °C 6.1 °C 1018.8 hPa Calm   4.8 km/h 83 % 0.0 mm
05:22 8.5 °C 5.8 °C 1018.8 hPa North 1.6 km/h 4.8 km/h 83 % 0.0 mm
05:27 8.4 °C 6.0 °C 1019.2 hPa Calm   4.8 km/h 85 % 0.0 mm
05:32 8.2 °C 6.0 °C 1019.2 hPa WNW 1.6 km/h 3.2 km/h 86 % 0.0 mm
05:37 8.2 °C 6.0 °C 1019.2 hPa Calm   12.9 km/h 86 % 0.0 mm
05:42 8.0 °C 5.5 °C 1019.2 hPa WSW 6.4 km/h 12.9 km/h 84 % 0.0 mm
05:52 7.9 °C 5.7 °C 1019.2 hPa Calm   11.3 km/h 86 % 0.0 mm
05:57 7.9 °C 5.7 °C 1019.2 hPa Calm   11.3 km/h 86 % 0.0 mm
06:02 7.8 °C 5.6 °C 1019.2 hPa South 1.6 km/h 6.4 km/h 86 % 0.0 mm
06:12 7.3 °C 5.3 °C 1019.2 hPa Calm   4.8 km/h 87 % 0.0 mm
06:17 7.2 °C 5.3 °C 1019.2 hPa Calm   4.8 km/h 88 % 0.0 mm
06:22 7.3 °C 5.4 °C 1019.2 hPa Calm   3.2 km/h 88 % 0.0 mm
06:32 7.4 °C 5.7 °C 1019.2 hPa Calm   1.6 km/h 89 % 0.0 mm
06:37 7.5 °C 5.8 °C 1019.2 hPa Calm   1.6 km/h 89 % 0.0 mm
06:42 7.5 °C 5.8 °C 1019.2 hPa Calm     89 % 0.0 mm
06:47 7.3 °C 5.4 °C 1019.2 hPa Calm     88 % 0.0 mm
06:52 7.3 °C 5.6 °C 1019.2 hPa Calm     89 % 0.0 mm
06:57 7.3 °C 5.6 °C 1019.5 hPa Calm     89 % 0.0 mm
07:02 7.3 °C 5.6 °C 1019.5 hPa Calm     89 % 0.0 mm
07:07 7.3 °C 5.8 °C 1019.5 hPa Calm     90 % 0.0 mm
07:12 7.3 °C 5.8 °C 1019.5 hPa Calm     90 % 0.0 mm
07:17 7.4 °C 5.9 °C 1019.9 hPa Calm     90 % 0.0 mm
07:22 7.4 °C 5.9 °C 1019.9 hPa Calm     90 % 0.0 mm
07:27 7.5 °C 6.0 °C 1019.9 hPa Calm     90 % 0.0 mm
07:32 7.7 °C 6.2 °C 1019.9 hPa West 1.6 km/h 3.2 km/h 90 % 0.0 mm
07:37 7.8 °C 6.3 °C 1019.9 hPa WNW 1.6 km/h 4.8 km/h 90 % 0.0 mm
07:42 7.9 °C 6.4 °C 1019.9 hPa Calm   6.4 km/h 90 % 0.0 mm
07:52 8.0 °C 6.5 °C 1020.2 hPa WNW 4.8 km/h 6.4 km/h 90 % 0.0 mm
07:57 8.1 °C 6.4 °C 1020.2 hPa NW 3.2 km/h 6.4 km/h 89 % 0.0 mm
08:02 8.1 °C 6.4 °C 1020.2 hPa WNW 1.6 km/h 12.9 km/h 89 % 0.0 mm
08:07 8.1 °C 6.4 °C 1020.2 hPa West 3.2 km/h 12.9 km/h 89 % 0.0 mm
08:12 8.2 °C 6.5 °C 1020.2 hPa WNW 1.6 km/h 12.9 km/h 89 % 0.0 mm
08:17 8.2 °C 6.5 °C 1020.2 hPa WSW 1.6 km/h 11.3 km/h 89 % 0.0 mm
08:22 8.2 °C 6.5 °C 1020.5 hPa WNW 3.2 km/h 6.4 km/h 89 % 0.0 mm
08:27 8.3 °C 6.4 °C 1020.5 hPa West 3.2 km/h 4.8 km/h 88 % 0.0 mm
08:32 8.3 °C 6.4 °C 1020.5 hPa West 4.8 km/h 4.8 km/h 88 % 0.0 mm
08:37 8.3 °C 6.4 °C 1020.5 hPa West 1.6 km/h 8.0 km/h 88 % 0.0 mm
08:42 8.3 °C 6.4 °C 1020.5 hPa WNW 3.2 km/h 9.7 km/h 88 % 0.0 mm
08:47 8.3 °C 6.4 °C 1020.5 hPa WNW 1.6 km/h 9.7 km/h 88 % 0.0 mm
08:52 8.3 °C 6.4 °C 1020.5 hPa WNW 1.6 km/h 9.7 km/h 88 % 0.0 mm
09:02 8.3 °C 6.4 °C 1020.5 hPa WNW 1.6 km/h 11.3 km/h 88 % 0.0 mm
09:12 8.4 °C 6.5 °C 1020.5 hPa SW 3.2 km/h 11.3 km/h 88 % 0.0 mm
09:17 8.5 °C 6.6 °C 1020.5 hPa West 3.2 km/h 9.7 km/h 88 % 0.0 mm
09:22 8.6 °C 6.7 °C 1020.9 hPa NW 3.2 km/h 6.4 km/h 88 % 0.0 mm
09:27 8.7 °C 6.7 °C 1020.9 hPa North 1.6 km/h 4.8 km/h 87 % 0.0 mm
09:32 8.7 °C 6.7 °C 1020.9 hPa WNW 6.4 km/h 6.4 km/h 87 % 0.0 mm
09:37 8.8 °C 6.6 °C 1020.9 hPa Calm   4.8 km/h 86 % 0.0 mm
09:42 8.9 °C 6.7 °C 1020.9 hPa NNW 4.8 km/h 8.0 km/h 86 % 0.0 mm
09:47 9.0 °C 6.8 °C 1020.9 hPa WNW 3.2 km/h 8.0 km/h 86 % 0.0 mm
09:52 9.1 °C 6.7 °C 1020.9 hPa Calm   8.0 km/h 85 % 0.0 mm
09:57 9.2 °C 6.8 °C 1020.9 hPa WNW 3.2 km/h 9.7 km/h 85 % 0.0 mm
10:02 9.4 °C 7.0 °C 1020.9 hPa WNW 6.4 km/h 9.7 km/h 85 % 0.0 mm
10:12 9.8 °C 7.2 °C 1021.2 hPa Calm   6.4 km/h 84 % 0.0 mm
10:17 9.9 °C 7.0 °C 1021.2 hPa NNW 1.6 km/h 8.0 km/h 82 % 0.0 mm
10:22 10.1 °C 7.2 °C 1021.2 hPa NW 4.8 km/h 6.4 km/h 82 % 0.0 mm
10:32 10.0 °C 7.1 °C 1021.6 hPa NNW 1.6 km/h 11.3 km/h 82 % 0.0 mm
10:37 10.2 °C 7.3 °C 1021.6 hPa Calm   11.3 km/h 82 % 0.0 mm
10:42 10.3 °C 7.4 °C 1021.6 hPa WNW 4.8 km/h 11.3 km/h 82 % 0.0 mm
10:52 10.4 °C 7.3 °C 1021.6 hPa WNW 6.4 km/h 11.3 km/h 81 % 0.0 mm
10:57 10.4 °C 7.1 °C 1021.6 hPa WNW 4.8 km/h 12.9 km/h 80 % 0.0 mm
11:02 10.4 °C 7.1 °C 1021.6 hPa NNW 3.2 km/h 14.5 km/h 80 % 0.0 mm
11:12 10.7 °C 7.4 °C 1021.6 hPa West 8.0 km/h 14.5 km/h 80 % 0.0 mm
11:17 10.8 °C 7.5 °C 1021.9 hPa North 3.2 km/h 12.9 km/h 80 % 0.0 mm
11:22 11.3 °C 8.0 °C 1021.9 hPa WNW 3.2 km/h 12.9 km/h 80 % 0.0 mm
11:32 11.3 °C 7.8 °C 1021.9 hPa NW 6.4 km/h 12.9 km/h 79 % 0.0 mm
11:42 11.4 °C 8.1 °C 1021.9 hPa WSW 4.8 km/h 9.7 km/h 80 % 0.0 mm
11:47 11.3 °C 7.8 °C 1021.9 hPa West 1.6 km/h 9.7 km/h 79 % 0.0 mm
11:57 11.3 °C 7.8 °C 1021.9 hPa WNW 4.8 km/h 11.3 km/h 79 % 0.0 mm
12:02 11.3 °C 7.8 °C 1021.9 hPa NW 3.2 km/h 11.3 km/h 79 % 0.0 mm
12:12 11.4 °C 7.7 °C 1021.9 hPa WNW 3.2 km/h 9.7 km/h 78 % 0.0 mm
12:17 11.4 °C 7.7 °C 1021.9 hPa WNW 3.2 km/h 9.7 km/h 78 % 0.0 mm
12:22 11.4 °C 7.5 °C 1021.9 hPa WNW 4.8 km/h 9.7 km/h 77 % 0.0 mm
12:32 11.6 °C 7.5 °C 1021.9 hPa WNW 3.2 km/h 9.7 km/h 76 % 0.0 mm
12:37 11.7 °C 7.4 °C 1021.9 hPa WNW 3.2 km/h 9.7 km/h 75 % 0.0 mm
12:42 11.9 °C 7.4 °C 1021.9 hPa WNW 8.0 km/h 12.9 km/h 74 % 0.0 mm
12:52 12.1 °C 7.4 °C 1021.9 hPa West 3.2 km/h 12.9 km/h 73 % 0.0 mm
12:57 12.3 °C 7.4 °C 1021.9 hPa West 4.8 km/h 12.9 km/h 72 % 0.0 mm
13:02 12.3 °C 7.6 °C 1021.9 hPa West 1.6 km/h 12.9 km/h 73 % 0.0 mm
13:07 12.5 °C 7.6 °C 1021.6 hPa West 6.4 km/h 12.9 km/h 72 % 0.0 mm
13:12 12.4 °C 7.3 °C 1021.9 hPa West 4.8 km/h 12.9 km/h 71 % 0.0 mm
13:17 12.4 °C 7.3 °C 1021.6 hPa WNW 1.6 km/h 12.9 km/h 71 % 0.0 mm
13:22 12.5 °C 7.4 °C 1021.9 hPa WSW 3.2 km/h 12.9 km/h 71 % 0.0 mm
13:27 12.6 °C 7.5 °C 1021.6 hPa WSW 9.7 km/h 11.3 km/h 71 % 0.0 mm
13:32 12.8 °C 7.3 °C 1021.9 hPa West 3.2 km/h 9.7 km/h 69 % 0.0 mm
13:37 12.9 °C 7.3 °C 1021.9 hPa SW 3.2 km/h 9.7 km/h 69 % 0.0 mm
13:42 12.9 °C 7.3 °C 1021.9 hPa Calm   9.7 km/h 69 % 0.0 mm
13:47 13.0 °C 7.4 °C 1021.6 hPa WNW 3.2 km/h 8.0 km/h 69 % 0.0 mm
13:52 13.2 °C 7.6 °C 1021.9 hPa West 8.0 km/h 8.0 km/h 69 % 0.0 mm
13:57 13.3 °C 7.7 °C 1021.9 hPa West 6.4 km/h 14.5 km/h 69 % 0.0 mm
14:02 13.3 °C 7.1 °C 1021.9 hPa NW 3.2 km/h 17.7 km/h 66 % 0.0 mm
14:12 13.2 °C 7.2 °C 1021.6 hPa WSW 9.7 km/h 17.7 km/h 67 % 0.0 mm
14:17 13.3 °C 7.1 °C 1021.6 hPa West 8.0 km/h 14.5 km/h 66 % 0.0 mm
14:22 13.3 °C 7.1 °C 1021.6 hPa WSW 8.0 km/h 14.5 km/h 66 % 0.0 mm
14:27 13.3 °C 7.3 °C 1021.6 hPa NNW 4.8 km/h 14.5 km/h 67 % 0.0 mm
14:32 13.4 °C 7.6 °C 1021.6 hPa WSW 3.2 km/h 14.5 km/h 68 % 0.0 mm
14:37 13.5 °C 7.5 °C 1021.6 hPa WSW 6.4 km/h 12.9 km/h 67 % 0.0 mm
14:42 13.7 °C 7.5 °C 1021.6 hPa SW 4.8 km/h 14.5 km/h 66 % 0.0 mm
14:47 13.7 °C 7.2 °C 1021.6 hPa West 3.2 km/h 16.1 km/h 65 % 0.0 mm
14:57 13.6 °C 7.4 °C 1021.6 hPa WSW 9.7 km/h 16.1 km/h 66 % 0.0 mm
15:02 13.4 °C 7.4 °C 1021.9 hPa WSW 11.3 km/h 17.7 km/h 67 % 0.0 mm
15:12 13.6 °C 6.9 °C 1021.9 hPa West 3.2 km/h 17.7 km/h 64 % 0.0 mm
15:17 13.6 °C 7.4 °C 1021.9 hPa WNW 1.6 km/h 17.7 km/h 66 % 0.0 mm
15:22 13.6 °C 7.6 °C 1021.6 hPa West 1.6 km/h 12.9 km/h 67 % 0.0 mm
15:32 13.4 °C 7.2 °C 1021.6 hPa West 8.0 km/h 20.9 km/h 66 % 0.0 mm
15:42 13.4 °C 7.6 °C 1021.9 hPa West 1.6 km/h 22.5 km/h 68 % 0.0 mm
15:47 13.6 °C 7.6 °C 1021.9 hPa NW 9.7 km/h 22.5 km/h 67 % 0.0 mm
15:52 13.5 °C 7.5 °C 1021.9 hPa WSW 8.0 km/h 22.5 km/h 67 % 0.0 mm
15:57 13.4 °C 7.4 °C 1021.9 hPa West 8.0 km/h 22.5 km/h 67 % 0.0 mm
16:02 13.4 °C 7.4 °C 1021.9 hPa West 9.7 km/h 22.5 km/h 67 % 0.0 mm
16:12 13.1 °C 7.3 °C 1021.9 hPa West 12.9 km/h 25.7 km/h 68 % 0.0 mm
16:17 13.1 °C 7.5 °C 1021.9 hPa WNW 6.4 km/h 25.7 km/h 69 % 0.0 mm
16:22 13.1 °C 7.5 °C 1021.9 hPa WNW 4.8 km/h 22.5 km/h 69 % 0.0 mm
16:32 13.2 °C 7.4 °C 1021.9 hPa West 6.4 km/h 19.3 km/h 68 % 0.0 mm
16:37 13.3 °C 7.7 °C 1021.9 hPa WNW 11.3 km/h 17.7 km/h 69 % 0.0 mm
16:42 13.3 °C 7.9 °C 1021.9 hPa WNW 12.9 km/h 17.7 km/h 70 % 0.0 mm
16:47 13.4 °C 8.0 °C 1021.9 hPa WNW 16.1 km/h 17.7 km/h 70 % 0.0 mm
16:52 13.3 °C 7.9 °C 1021.9 hPa WSW 9.7 km/h 17.7 km/h 70 % 0.0 mm
16:57 13.3 °C 7.9 °C 1021.9 hPa WSW 9.7 km/h 17.7 km/h 70 % 0.0 mm
17:02 13.3 °C 7.9 °C 1021.9 hPa West 11.3 km/h 17.7 km/h 70 % 0.0 mm
17:07 13.4 °C 7.8 °C 1021.9 hPa NW 12.9 km/h 17.7 km/h 69 % 0.0 mm
17:12 13.4 °C 7.8 °C 1021.6 hPa West 4.8 km/h 17.7 km/h 69 % 0.0 mm
17:17 13.4 °C 8.0 °C 1021.9 hPa West 6.4 km/h 14.5 km/h 70 % 0.0 mm
17:22 13.3 °C 7.7 °C 1021.6 hPa West 9.7 km/h 14.5 km/h 69 % 0.0 mm
17:32 13.2 °C 7.8 °C 1021.6 hPa WSW 4.8 km/h 16.1 km/h 70 % 0.0 mm
17:42 13.1 °C 8.0 °C 1021.9 hPa WNW 14.5 km/h 20.9 km/h 71 % 0.0 mm
17:47 12.9 °C 8.0 °C 1021.6 hPa WSW 6.4 km/h 20.9 km/h 72 % 0.0 mm
17:52 13.0 °C 8.1 °C 1021.9 hPa WNW 6.4 km/h 20.9 km/h 72 % 0.0 mm
17:57 13.0 °C 8.1 °C 1021.9 hPa West 4.8 km/h 19.3 km/h 72 % 0.0 mm
18:02 13.1 °C 8.2 °C 1021.9 hPa West 4.8 km/h 19.3 km/h 72 % 0.0 mm
18:07 13.0 °C 7.9 °C 1021.9 hPa WNW 9.7 km/h 19.3 km/h 71 % 0.0 mm
18:12 12.9 °C 7.8 °C 1021.9 hPa NW 16.1 km/h 19.3 km/h 71 % 0.0 mm
18:17 12.8 °C 7.9 °C 1021.9 hPa West 3.2 km/h 19.3 km/h 72 % 0.0 mm
18:22 12.8 °C 8.1 °C 1021.9 hPa West 8.0 km/h 19.3 km/h 73 % 0.0 mm
18:27 12.7 °C 7.8 °C 1021.9 hPa WSW 11.3 km/h 17.7 km/h 72 % 0.0 mm
18:32 12.6 °C 7.9 °C 1021.9 hPa WNW 8.0 km/h 16.1 km/h 73 % 0.0 mm
18:37 12.5 °C 7.8 °C 1021.9 hPa NW 11.3 km/h 16.1 km/h 73 % 0.0 mm
18:42 12.4 °C 7.9 °C 1021.9 hPa WNW 8.0 km/h 20.9 km/h 74 % 0.0 mm
18:52 12.3 °C 8.0 °C 1021.9 hPa West 3.2 km/h 20.9 km/h 75 % 0.0 mm
18:57 12.3 °C 8.0 °C 1021.9 hPa West 3.2 km/h 12.9 km/h 75 % 0.0 mm
19:02 12.3 °C 8.0 °C 1021.9 hPa West 9.7 km/h 12.9 km/h 75 % 0.0 mm
19:07 12.3 °C 8.0 °C 1022.2 hPa WNW 4.8 km/h 12.9 km/h 75 % 0.0 mm
19:12 12.3 °C 8.0 °C 1022.2 hPa West 3.2 km/h 12.9 km/h 75 % 0.0 mm
19:17 12.3 °C 8.2 °C 1022.2 hPa West 4.8 km/h 9.7 km/h 76 % 0.0 mm
19:22 12.3 °C 8.2 °C 1022.2 hPa WNW 4.8 km/h 12.9 km/h 76 % 0.0 mm
19:32 12.2 °C 8.1 °C 1022.2 hPa West 4.8 km/h 12.9 km/h 76 % 0.0 mm
19:37 12.2 °C 8.1 °C 1022.2 hPa WNW 9.7 km/h 12.9 km/h 76 % 0.0 mm
19:42 12.2 °C 8.1 °C 1022.2 hPa West 3.2 km/h 12.9 km/h 76 % 0.0 mm
19:47 12.2 °C 8.3 °C 1022.2 hPa West 3.2 km/h 12.9 km/h 77 % 0.0 mm
19:52 12.2 °C 8.1 °C 1022.2 hPa WSW 4.8 km/h 12.9 km/h 76 % 0.0 mm
19:57 12.2 °C 8.1 °C 1022.2 hPa West 3.2 km/h 14.5 km/h 76 % 0.0 mm
20:02 12.2 °C 8.1 °C 1022.2 hPa WSW 6.4 km/h 16.1 km/h 76 % 0.0 mm
20:07 12.2 °C 8.1 °C 1022.2 hPa WNW 11.3 km/h 16.1 km/h 76 % 0.0 mm
20:12 12.1 °C 8.0 °C 1022.2 hPa WSW 6.4 km/h 16.1 km/h 76 % 0.0 mm
20:17 12.1 °C 8.0 °C 1022.2 hPa WSW 11.3 km/h 14.5 km/h 76 % 0.0 mm
20:22 12.0 °C 8.1 °C 1022.2 hPa WSW 6.4 km/h 14.5 km/h 77 % 0.0 mm
20:27 11.9 °C 8.0 °C 1022.2 hPa West 4.8 km/h 14.5 km/h 77 % 0.0 mm
20:32 11.9 °C 8.0 °C 1022.2 hPa West 6.4 km/h 12.9 km/h 77 % 0.0 mm
20:37 11.9 °C 8.0 °C 1022.6 hPa WSW 1.6 km/h 11.3 km/h 77 % 0.0 mm
20:47 11.8 °C 8.1 °C 1022.2 hPa WSW 3.2 km/h 8.0 km/h 78 % 0.0 mm
20:52 11.7 °C 8.0 °C 1022.2 hPa WSW 6.4 km/h 9.7 km/h 78 % 0.0 mm
20:57 11.7 °C 8.0 °C 1022.6 hPa West 1.6 km/h 9.7 km/h 78 % 0.0 mm
21:07 11.6 °C 7.9 °C 1022.9 hPa West 1.6 km/h 11.3 km/h 78 % 0.0 mm
21:12 11.6 °C 8.1 °C 1022.9 hPa WNW 3.2 km/h 11.3 km/h 79 % 0.0 mm
21:17 11.4 °C 7.9 °C 1022.9 hPa West 3.2 km/h 6.4 km/h 79 % 0.0 mm
21:22 11.4 °C 7.9 °C 1022.9 hPa West 1.6 km/h 6.4 km/h 79 % 0.0 mm
21:27 11.4 °C 7.9 °C 1022.9 hPa Calm   6.4 km/h 79 % 0.0 mm
21:32 11.4 °C 8.1 °C 1022.9 hPa SW 1.6 km/h 6.4 km/h 80 % 0.0 mm
21:37 11.3 °C 8.0 °C 1022.9 hPa Calm   4.8 km/h 80 % 0.0 mm
21:42 11.3 °C 8.0 °C 1023.2 hPa Calm   4.8 km/h 80 % 0.0 mm
21:47 11.2 °C 7.9 °C 1023.2 hPa Calm   4.8 km/h 80 % 0.0 mm
21:52 11.1 °C 8.0 °C 1023.2 hPa Calm   3.2 km/h 81 % 0.0 mm
21:57 11.1 °C 8.0 °C 1023.2 hPa Calm   3.2 km/h 81 % 0.0 mm
22:02 11.0 °C 7.9 °C 1023.2 hPa WNW 3.2 km/h 3.2 km/h 81 % 0.0 mm
22:07 11.0 °C 7.9 °C 1023.2 hPa West 3.2 km/h 4.8 km/h 81 % 0.0 mm
22:17 11.1 °C 8.0 °C 1023.2 hPa West 1.6 km/h 6.4 km/h 81 % 0.0 mm
22:27 11.1 °C 8.0 °C 1023.2 hPa West 4.8 km/h 6.4 km/h 81 % 0.0 mm
22:32 11.2 °C 8.1 °C 1023.2 hPa WSW 3.2 km/h 11.3 km/h 81 % 0.0 mm
22:37 11.2 °C 8.1 °C 1023.2 hPa WNW 1.6 km/h 11.3 km/h 81 % 0.0 mm
22:42 11.1 °C 8.0 °C 1023.2 hPa WSW 6.4 km/h 11.3 km/h 81 % 0.0 mm
22:47 11.2 °C 8.1 °C 1023.2 hPa West 3.2 km/h 11.3 km/h 81 % 0.0 mm
22:52 11.1 °C 8.0 °C 1023.2 hPa WSW 1.6 km/h 11.3 km/h 81 % 0.0 mm
22:57 11.1 °C 8.0 °C 1023.2 hPa West 3.2 km/h 11.3 km/h 81 % 0.0 mm
23:02 11.1 °C 8.0 °C 1023.2 hPa WSW 4.8 km/h 9.7 km/h 81 % 0.0 mm
23:07 11.2 °C 8.1 °C 1023.2 hPa West 6.4 km/h 9.7 km/h 81 % 0.0 mm
23:12 11.1 °C 8.0 °C 1023.2 hPa West 3.2 km/h 9.7 km/h 81 % 0.0 mm
23:17 11.1 °C 8.0 °C 1023.2 hPa West 3.2 km/h 11.3 km/h 81 % 0.0 mm
23:22 11.1 °C 8.0 °C 1023.2 hPa WSW 11.3 km/h 12.9 km/h 81 % 0.0 mm
23:27 11.1 °C 8.0 °C 1023.2 hPa SW 9.7 km/h 12.9 km/h 81 % 0.0 mm
23:32 11.1 °C 8.0 °C 1023.2 hPa West 11.3 km/h 17.7 km/h 81 % 0.0 mm
23:37 11.1 °C 8.0 °C 1023.2 hPa West 4.8 km/h 17.7 km/h 81 % 0.0 mm
23:42 11.1 °C 8.0 °C 1023.6 hPa WNW 4.8 km/h 17.7 km/h 81 % 0.0 mm
23:47 11.1 °C 8.0 °C 1023.6 hPa WSW 3.2 km/h 16.1 km/h 81 % 0.0 mm
23:52 11.1 °C 8.0 °C 1023.6 hPa West 4.8 km/h 16.1 km/h 81 % 0.0 mm
23:57 11.0 °C 7.9 °C 1023.6 hPa WSW 11.3 km/h 16.1 km/h 81 % 0.0 mm
Meteo18
Compliments of Weather Underground - 4 mb

Script developed by  Jim McMurry - jmcmurry@mwt.net Adapted for the template by  Wim van der Kuil - Leuven-Template.eu

You find our weather info also at:

European Weather Network

Weather Underground

Equipment we use:

Weather-station
Davis Vue

Weather-program
Meteohub

Weather-server
Raspberry PI 2 B+

Provider
1 and 1

Davis Vue

Meteohub

Raspberry PI 2 B+

1 and 1